TimeCST,TemperatureF,Dew PointF,Humidity,Sea Level PressureIn,VisibilityMPH,Wind Direction,Wind SpeedMPH,Gust SpeedMPH,PrecipitationIn,Events,Conditions,WindDirDegrees,DateUTC
12:12 AM,16.0,10.8,80,30.15,10.0,Calm,Calm,-,N/A,,Overcast,0,2013-03-03 06:12:00
12:33 AM,15.6,10.4,80,30.15,10.0,Calm,Calm,-,N/A,,Overcast,0,2013-03-03 06:33:00
12:52 AM,16.0,10.4,79,30.14,10.0,Calm,Calm,-,N/A,,Overcast,0,2013-03-03 06:52:00
1:12 AM,15.8,10.6,80,30.13,10.0,Calm,Calm,-,N/A,,Scattered Clouds,0,2013-03-03 07:12:00
1:33 AM,15.4,10.4,80,30.13,10.0,Calm,Calm,-,N/A,,Mostly Cloudy,0,2013-03-03 07:33:00
1:52 AM,14.9,9.9,80,30.13,10.0,Calm,Calm,-,N/A,,Overcast,0,2013-03-03 07:52:00
2:13 AM,13.8,9.5,83,30.12,10.0,Calm,Calm,-,N/A,,Overcast,0,2013-03-03 08:13:00
2:33 AM,14.9,10.0,81,30.11,10.0,ENE,3.5,-,N/A,,Overcast,70,2013-03-03 08:33:00
2:52 AM,14.5,9.5,80,30.11,10.0,East,3.5,-,N/A,,Scattered Clouds,90,2013-03-03 08:52:00
3:13 AM,15.1,9.5,79,30.10,10.0,Calm,Calm,-,N/A,,Mostly Cloudy,0,2013-03-03 09:13:00
3:33 AM,14.0,8.4,78,30.10,10.0,Calm,Calm,-,N/A,,Overcast,0,2013-03-03 09:33:00
3:53 AM,13.1,8.2,81,30.10,10.0,Calm,Calm,-,N/A,,Overcast,0,2013-03-03 09:53:00
4:33 AM,12.9,7.7,80,30.10,10.0,Calm,Calm,-,N/A,,Overcast,0,2013-03-03 10:33:00
4:53 AM,14.0,9.0,80,30.10,10.0,ENE,3.5,-,N/A,,Overcast,70,2013-03-03 10:53:00
5:12 AM,12.2,6.8,79,30.09,10.0,Calm,Calm,-,N/A,,Mostly Cloudy,0,2013-03-03 11:12:00
5:33 AM,12.4,6.6,78,30.10,10.0,NE,3.5,-,N/A,,Scattered Clouds,50,2013-03-03 11:33:00
5:53 AM,10.9,7.2,85,30.10,10.0,Calm,Calm,-,N/A,,Clear,0,2013-03-03 11:53:00
6:12 AM,12.0,8.1,84,30.10,10.0,Calm,Calm,-,N/A,,Clear,0,2013-03-03 12:12:00
6:33 AM,10.9,6.8,83,30.10,10.0,Calm,Calm,-,N/A,,Clear,0,2013-03-03 12:33:00
6:53 AM,9.9,5.7,83,30.10,10.0,Calm,Calm,-,N/A,,Clear,0,2013-03-03 12:53:00
7:12 AM,8.4,4.8,85,30.10,10.0,Calm,Calm,-,N/A,,Clear,0,2013-03-03 13:12:00
7:33 AM,7.9,4.5,86,30.10,10.0,NE,3.5,-,N/A,,Scattered Clouds,40,2013-03-03 13:33:00
7:53 AM,9.1,5.5,85,30.10,10.0,East,3.5,-,N/A,,Scattered Clouds,90,2013-03-03 13:53:00
8:12 AM,11.7,6.6,80,30.10,10.0,Calm,Calm,-,N/A,,Clear,0,2013-03-03 14:12:00
8:33 AM,13.1,6.3,74,30.10,10.0,Calm,Calm,-,N/A,,Clear,0,2013-03-03 14:33:00
8:53 AM,19.4,8.8,63,30.10,10.0,SE,5.8,-,N/A,,Clear,140,2013-03-03 14:53:00
9:12 AM,23.5,8.6,53,30.09,10.0,SE,8.1,-,N/A,,Clear,140,2013-03-03 15:12:00
9:32 AM,24.8,8.4,50,30.08,10.0,SE,5.8,-,N/A,,Clear,140,2013-03-03 15:32:00
9:53 AM,25.7,7.7,47,30.08,10.0,SE,9.2,-,N/A,,Clear,140,2013-03-03 15:53:00
10:12 AM,27.1,8.2,45,30.08,10.0,ESE,5.8,-,N/A,,Clear,120,2013-03-03 16:12:00
10:32 AM,27.5,7.9,44,30.07,10.0,ESE,9.2,-,N/A,,Clear,120,2013-03-03 16:32:00
10:53 AM,28.4,7.3,41,30.07,10.0,SE,9.2,-,N/A,,Clear,130,2013-03-03 16:53:00
11:33 AM,29.1,8.4,42,30.06,10.0,SE,9.2,-,N/A,,Clear,130,2013-03-03 17:33:00
11:53 AM,29.7,9.5,43,30.06,10.0,SE,8.1,-,N/A,,Clear,140,2013-03-03 17:53:00
12:12 PM,30.6,7.7,38,30.05,10.0,SE,10.4,-,N/A,,Clear,130,2013-03-03 18:12:00
12:33 PM,30.9,8.8,40,30.04,10.0,SE,6.9,-,N/A,,Clear,140,2013-03-03 18:33:00
12:53 PM,31.1,8.8,39,30.03,10.0,SE,5.8,-,N/A,,Clear,130,2013-03-03 18:53:00
1:12 PM,31.6,5.4,33,30.03,10.0,SE,9.2,-,N/A,,Mostly Cloudy,140,2013-03-03 19:12:00
1:33 PM,31.8,5.4,33,30.02,10.0,ESE,6.9,-,N/A,,Overcast,120,2013-03-03 19:33:00
1:52 PM,32.0,6.6,34,30.01,10.0,ESE,8.1,-,N/A,,Overcast,120,2013-03-03 19:52:00
2:13 PM,32.2,6.6,34,30.00,10.0,ESE,8.1,-,N/A,,Overcast,120,2013-03-03 20:13:00
2:33 PM,32.7,7.7,35,30.00,10.0,ESE,6.9,-,N/A,,Scattered Clouds,110,2013-03-03 20:33:00
2:52 PM,32.9,7.9,35,30.00,10.0,ESE,5.8,-,N/A,,Clear,120,2013-03-03 20:52:00
3:13 PM,32.9,6.1,32,29.99,10.0,ESE,9.2,-,N/A,,Clear,120,2013-03-03 21:13:00
3:53 PM,33.1,7.5,34,29.98,10.0,ESE,9.2,-,N/A,,Clear,120,2013-03-03 21:53:00
4:13 PM,32.9,8.1,35,29.98,10.0,SE,9.2,-,N/A,,Clear,130,2013-03-03 22:13:00
4:32 PM,32.4,10.9,41,29.98,10.0,ESE,6.9,-,N/A,,Clear,110,2013-03-03 22:32:00
4:53 PM,32.0,10.8,41,29.98,10.0,ESE,8.1,-,N/A,,Clear,110,2013-03-03 22:53:00
5:13 PM,31.8,10.9,42,29.98,10.0,ESE,5.8,-,N/A,,Clear,120,2013-03-03 23:13:00
5:33 PM,31.5,10.6,42,29.98,10.0,ESE,6.9,-,N/A,,Clear,110,2013-03-03 23:33:00
5:52 PM,30.7,10.8,43,29.98,10.0,ESE,6.9,-,N/A,,Clear,110,2013-03-03 23:52:00
6:13 PM,30.0,11.1,45,29.98,10.0,ESE,5.8,-,N/A,,Clear,110,2013-03-04 00:13:00
6:32 PM,29.3,11.3,47,29.98,10.0,ESE,4.6,-,N/A,,Clear,110,2013-03-04 00:32:00
6:53 PM,28.9,11.1,47,29.98,10.0,ESE,5.8,-,N/A,,Clear,110,2013-03-04 00:53:00
7:13 PM,28.4,10.8,48,29.98,10.0,East,5.8,-,N/A,,Clear,100,2013-03-04 01:13:00
7:32 PM,27.9,10.9,49,29.98,10.0,East,4.6,-,N/A,,Clear,100,2013-03-04 01:32:00
7:53 PM,28.0,10.4,48,29.98,10.0,East,4.6,-,N/A,,Clear,100,2013-03-04 01:53:00
8:13 PM,27.9,10.2,48,29.98,10.0,ESE,4.6,-,N/A,,Scattered Clouds,110,2013-03-04 02:13:00
8:32 PM,28.2,10.2,47,29.98,10.0,ESE,4.6,-,N/A,,Scattered Clouds,110,2013-03-04 02:32:00
8:53 PM,28.4,10.4,47,29.99,10.0,Calm,Calm,-,N/A,,Clear,0,2013-03-04 02:53:00
9:13 PM,28.4,10.9,48,29.98,10.0,ESE,4.6,-,N/A,,Scattered Clouds,110,2013-03-04 03:13:00
9:32 PM,28.8,10.9,47,29.98,10.0,ESE,4.6,-,N/A,,Mostly Cloudy,120,2013-03-04 03:32:00
9:53 PM,28.9,11.3,48,29.98,10.0,ESE,6.9,-,N/A,,Overcast,120,2013-03-04 03:53:00
10:13 PM,28.9,11.5,48,29.96,10.0,ESE,6.9,-,N/A,,Overcast,110,2013-03-04 04:13:00
10:32 PM,28.9,11.7,49,29.96,10.0,ESE,8.1,-,N/A,,Overcast,120,2013-03-04 04:32:00
10:53 PM,28.8,11.3,48,29.96,10.0,SE,6.9,-,N/A,,Overcast,130,2013-03-04 04:53:00
11:13 PM,28.6,11.8,50,29.96,10.0,ESE,8.1,-,N/A,,Overcast,120,2013-03-04 05:13:00
11:32 PM,28.6,12.0,50,29.96,10.0,SE,8.1,-,N/A,,Overcast,130,2013-03-04 05:32:00
11:53 PM,28.4,12.2,51,29.97,10.0,SE,6.9,-,N/A,,Overcast,140,2013-03-04 05:53:00